Current Conditions
Clear
Conditions



Pressure
30.26 (inHG) - 1024.72 (mb)
Visibility

10.0 (mimiles) - 16.1 (km)
   Temperature
63  °F
17°C
57  °F
Dewpoint
83  %
 Humidity
   Wind Speed
7  mph
6  kts
11  km/h
3.1  m/s
   Wind Direction
 10°
Due North
   Airport Data
KMYR
Location Myrtle Beach International 2 mi (3.22 km)
Metar :KMYR 201056Z 01006KT 10SM CLR 17/14 A3026 RMK AO2 SLP246 T01670144
Fri 20th September 05:56 am
   Raw Metar Info
Raw METAR is the most common format in the world for the transmission of observational weather data. It is highly standardized through the International Civil Aviation Organization (ICAO), which allows it to be understood throughout most of the world.
   API Info
Data Provided by
https://www.checkwx.com/weather/KMYR
   © Info
CSS/SVG/PHP scripts were developed by weather34.com for use in the weather34 template © 2015-2019

Guide Info provided by Metar-Wikipedia